createdAt,value
2018-11-28T00:01:12.418Z,28.90
2018-11-28T00:03:39.653Z,30.23
2018-11-28T00:06:06.865Z,27.37
2018-11-28T00:08:34.370Z,27.13
2018-11-28T00:11:01.657Z,33.63
2018-11-28T00:13:28.902Z,32.70
2018-11-28T00:16:02.801Z,28.17
2018-11-28T00:18:30.085Z,26.10
2018-11-28T00:20:57.371Z,27.10
2018-11-28T00:23:24.592Z,30.53
2018-11-28T00:25:51.857Z,32.90
2018-11-28T00:28:19.066Z,27.07
2018-11-28T00:30:46.337Z,28.87
2018-11-28T00:33:13.597Z,36.30
2018-11-28T00:35:40.866Z,35.03
2018-11-28T00:38:08.505Z,25.53
2018-11-28T00:40:35.809Z,27.97
2018-11-28T00:43:03.047Z,27.83
2018-11-28T00:45:30.381Z,28.07
2018-11-28T00:47:57.617Z,29.37
2018-11-28T00:50:26.484Z,32.27
2018-11-28T00:52:53.786Z,27.33
2018-11-28T00:55:21.041Z,32.17
2018-11-28T00:57:48.269Z,26.90
2018-11-28T01:00:15.994Z,33.40
2018-11-28T01:02:43.237Z,34.63
2018-11-28T01:05:10.921Z,34.17
2018-11-28T01:07:38.187Z,31.90
2018-11-28T01:10:07.590Z,32.07
2018-11-28T01:12:34.831Z,30.40
2018-11-28T01:15:02.065Z,32.93
2018-11-28T01:17:29.287Z,34.40
2018-11-28T01:19:56.516Z,29.67
2018-11-28T01:22:23.770Z,33.03
2018-11-28T01:24:51.013Z,33.13
2018-11-28T01:27:18.605Z,34.03
2018-11-28T01:29:45.797Z,26.60
2018-11-28T01:32:13.039Z,32.73
2018-11-28T01:34:40.248Z,35.27
2018-11-28T01:37:07.502Z,29.93
2018-11-28T01:39:35.069Z,29.57
2018-11-28T01:42:02.321Z,32.43
2018-11-28T01:44:29.550Z,30.87
2018-11-28T01:46:56.817Z,32.13
2018-11-28T01:49:24.049Z,33.73
2018-11-28T01:51:51.277Z,28.77
2018-11-28T01:54:18.737Z,31.50
2018-11-28T01:56:45.970Z,34.33
2018-11-28T01:59:13.259Z,35.90
2018-11-28T02:01:40.472Z,32.20
2018-11-28T02:04:07.675Z,32.13
2018-11-28T02:06:34.914Z,31.73
2018-11-28T02:09:02.169Z,29.73
2018-11-28T02:11:29.370Z,29.27
2018-11-28T02:13:56.589Z,36.03
2018-11-28T02:16:23.797Z,33.33
2018-11-28T02:18:51.237Z,36.63
2018-11-28T02:21:18.645Z,31.40
2018-11-28T02:23:45.928Z,36.70
2018-11-28T02:26:13.425Z,26.00
2018-11-28T02:28:40.693Z,35.63
2018-11-28T02:31:07.930Z,30.97
2018-11-28T02:33:35.149Z,30.43
2018-11-28T02:36:02.905Z,31.70
2018-11-28T02:38:30.129Z,31.03
2018-11-28T02:40:57.674Z,28.70
2018-11-28T02:43:24.890Z,33.20
2018-11-28T02:45:57.836Z,34.60
2018-11-28T02:48:25.053Z,35.20
2018-11-28T02:50:52.280Z,27.03
2018-11-28T02:53:19.522Z,32.30
2018-11-28T02:55:46.829Z,28.47
2018-11-28T02:58:14.097Z,33.43
2018-11-28T03:00:41.326Z,27.97
2018-11-28T03:03:08.836Z,32.87
2018-11-28T03:05:36.078Z,38.13
2018-11-28T03:08:03.401Z,31.77
2018-11-28T03:10:30.649Z,21.70
2018-11-28T03:12:57.890Z,38.07
2018-11-28T03:15:32.865Z,30.87
2018-11-28T03:18:00.406Z,24.20
2018-11-28T03:20:27.664Z,29.87
2018-11-28T03:22:54.942Z,31.37
2018-11-28T03:25:22.509Z,34.90
2018-11-28T03:27:49.773Z,38.13
2018-11-28T03:30:17.049Z,30.47
2018-11-28T03:32:44.293Z,31.97
2018-11-28T03:35:13.058Z,29.47
2018-11-28T03:37:40.282Z,33.43
2018-11-28T03:40:07.645Z,33.27
2018-11-28T03:42:35.297Z,34.77
2018-11-28T03:45:02.573Z,31.50
2018-11-28T03:47:29.793Z,27.10
2018-11-28T03:49:57.368Z,31.97
2018-11-28T03:52:24.596Z,34.03
2018-11-28T03:54:51.794Z,32.93
2018-11-28T03:57:19.089Z,37.90
2018-11-28T03:59:46.329Z,35.00
2018-11-28T04:02:13.486Z,30.13
2018-11-28T04:04:40.641Z,34.83
2018-11-28T04:07:08.160Z,37.13
2018-11-28T04:09:35.304Z,33.27
2018-11-28T04:12:02.450Z,36.20
2018-11-28T04:14:29.577Z,31.90
2018-11-28T04:16:56.720Z,34.07
2018-11-28T04:19:24.124Z,38.43
2018-11-28T04:21:51.268Z,31.13
2018-11-28T04:24:18.650Z,32.17
2018-11-28T04:26:45.828Z,32.23
2018-11-28T04:29:12.964Z,32.00
2018-11-28T04:31:40.115Z,41.50
2018-11-28T04:34:07.642Z,32.60
2018-11-28T04:36:34.910Z,35.27
2018-11-28T04:39:02.175Z,36.40
2018-11-28T04:41:29.401Z,36.43
2018-11-28T04:43:56.665Z,37.60
2018-11-28T04:46:23.895Z,37.27
2018-11-28T04:48:51.159Z,37.17
2018-11-28T04:51:18.377Z,31.97
2018-11-28T04:53:45.621Z,32.43
2018-11-28T04:56:12.860Z,32.60
2018-11-28T04:58:40.113Z,33.90
2018-11-28T05:01:07.374Z,36.00
2018-11-28T05:03:34.926Z,34.33
2018-11-28T05:06:02.141Z,27.20
2018-11-28T05:08:29.420Z,35.97
2018-11-28T05:10:57.004Z,34.70
2018-11-28T05:13:24.271Z,30.77
2018-11-28T05:15:51.810Z,31.80
2018-11-28T05:18:19.035Z,33.97
2018-11-28T05:20:46.311Z,36.00
2018-11-28T05:23:13.777Z,30.57
2018-11-28T05:25:41.227Z,38.83
2018-11-28T05:28:08.684Z,33.93
2018-11-28T05:30:35.940Z,37.17
2018-11-28T05:33:03.203Z,34.93
2018-11-28T05:35:31.974Z,30.30
2018-11-28T05:38:11.502Z,26.53
2018-11-28T05:40:38.769Z,37.90
2018-11-28T05:43:06.581Z,34.07
2018-11-28T05:45:34.116Z,39.17
2018-11-28T05:48:01.376Z,35.67
2018-11-28T05:50:28.641Z,27.90
2018-11-28T05:52:56.198Z,32.80
2018-11-28T05:55:23.418Z,21.73
2018-11-28T05:57:50.628Z,24.30
2018-11-28T06:00:21.494Z,36.00
2018-11-28T06:02:48.717Z,34.97
2018-11-28T06:05:16.169Z,27.87
2018-11-28T06:07:43.625Z,23.17
2018-11-28T06:10:10.757Z,24.57
2018-11-28T06:12:37.884Z,36.83
2018-11-28T06:15:06.460Z,32.33
2018-11-28T06:17:33.760Z,24.30
2018-11-28T06:20:00.896Z,33.90
2018-11-28T06:22:28.052Z,31.53
2018-11-28T06:24:55.549Z,35.03
2018-11-28T06:27:22.677Z,34.60
2018-11-28T06:29:49.821Z,38.43
2018-11-28T06:32:16.960Z,29.97
2018-11-28T06:34:44.089Z,28.93
2018-11-28T06:37:11.225Z,32.60
2018-11-28T06:39:38.352Z,33.67
2018-11-28T06:42:05.652Z,29.37
2018-11-28T06:44:33.056Z,26.77
2018-11-28T06:47:00.204Z,34.77
2018-11-28T06:49:27.564Z,32.47
2018-11-28T06:51:54.684Z,30.90
2018-11-28T06:54:22.020Z,31.53
2018-11-28T06:56:49.144Z,22.20
2018-11-28T06:59:16.273Z,33.53
2018-11-28T07:01:43.400Z,36.37
2018-11-28T07:04:10.531Z,33.27
2018-11-28T07:06:37.899Z,24.53
2018-11-28T07:09:06.460Z,34.90
2018-11-28T07:11:33.624Z,31.97
2018-11-28T07:14:00.756Z,32.33
2018-11-28T07:16:27.905Z,26.53
2018-11-28T07:19:00.787Z,34.13
2018-11-28T07:21:27.955Z,25.90
2018-11-28T07:23:55.121Z,35.30
2018-11-28T07:26:22.624Z,36.53
2018-11-28T07:28:49.864Z,29.80
2018-11-28T07:31:17.001Z,27.37
2018-11-28T07:33:44.236Z,27.93
2018-11-28T07:36:11.366Z,38.53
2018-11-28T07:38:38.517Z,35.20
2018-11-28T07:41:05.669Z,33.27
2018-11-28T07:43:33.306Z,32.75
2018-11-28T07:46:00.525Z,32.57
2018-11-28T07:48:27.826Z,35.40
2018-11-28T07:50:55.041Z,33.30
2018-11-28T07:53:22.293Z,30.07
2018-11-28T07:55:49.528Z,29.70
2018-11-28T07:58:17.281Z,30.03
2018-11-28T08:00:44.590Z,32.93
2018-11-28T08:03:12.369Z,29.90
2018-11-28T08:05:39.474Z,36.67
2018-11-28T08:08:07.593Z,32.40
2018-11-28T08:10:35.149Z,21.30
2018-11-28T08:13:02.753Z,29.63
2018-11-28T08:15:30.359Z,33.07
2018-11-28T08:17:57.641Z,24.07
2018-11-28T08:20:24.866Z,30.30
2018-11-28T08:22:52.177Z,32.97
2018-11-28T08:25:19.430Z,38.30
2018-11-28T08:27:47.220Z,28.57
2018-11-28T08:30:15.486Z,29.23
2018-11-28T08:32:42.744Z,23.33
2018-11-28T08:35:10.328Z,33.50
2018-11-28T08:37:37.562Z,30.50
2018-11-28T08:40:06.485Z,28.53
2018-11-28T08:42:33.769Z,31.53
2018-11-28T08:45:01.234Z,35.43
2018-11-28T08:47:28.537Z,28.63
2018-11-28T08:49:55.790Z,33.17
2018-11-28T08:52:23.075Z,23.63
2018-11-28T08:54:50.353Z,34.40
2018-11-28T08:57:17.649Z,34.63
2018-11-28T08:59:45.315Z,32.90
2018-11-28T09:02:12.872Z,25.40
2018-11-28T09:04:40.113Z,29.27
2018-11-28T09:07:07.593Z,22.30
2018-11-28T09:09:34.804Z,30.07
2018-11-28T09:12:02.043Z,30.07
2018-11-28T09:14:29.318Z,29.17
2018-11-28T09:16:56.881Z,30.70
2018-11-28T09:19:24.109Z,29.17
2018-11-28T09:21:51.389Z,30.23
2018-11-28T09:24:18.629Z,30.23
2018-11-28T09:26:45.875Z,29.13
2018-11-28T09:29:13.161Z,29.27
2018-11-28T09:31:40.401Z,29.27
2018-11-28T09:34:07.620Z,28.80
2018-11-28T09:36:35.079Z,27.10
2018-11-28T09:39:02.586Z,26.20
2018-11-28T09:41:29.853Z,32.57
2018-11-28T09:43:57.100Z,31.57
2018-11-28T09:46:24.365Z,33.80
2018-11-28T09:48:51.957Z,30.40
2018-11-28T09:51:19.201Z,34.23
2018-11-28T09:53:46.482Z,31.83
2018-11-28T09:56:13.733Z,34.80
2018-11-28T09:58:40.962Z,30.63
2018-11-28T10:01:08.476Z,32.00
2018-11-28T10:03:35.969Z,28.63
2018-11-28T10:06:03.619Z,27.00
2018-11-28T10:08:30.789Z,36.47
2018-11-28T10:10:58.077Z,33.73
2018-11-28T10:13:25.314Z,36.20
2018-11-28T10:15:52.817Z,31.80
2018-11-28T10:18:20.075Z,29.90
2018-11-28T10:20:47.317Z,35.73
2018-11-28T10:23:14.555Z,39.83
2018-11-28T10:25:41.809Z,33.40
2018-11-28T10:28:09.501Z,27.00
2018-11-28T10:30:37.274Z,33.10
2018-11-28T10:33:05.662Z,28.03
2018-11-28T10:35:33.913Z,32.03
2018-11-28T10:38:01.198Z,32.83
2018-11-28T10:40:28.445Z,30.20
2018-11-28T10:42:56.221Z,33.57
2018-11-28T10:45:24.091Z,33.40
2018-11-28T10:47:51.358Z,33.67
2018-11-28T10:50:18.597Z,29.43
2018-11-28T10:52:46.143Z,21.00
2018-11-28T10:55:14.293Z,32.00
2018-11-28T10:57:41.801Z,33.40
2018-11-28T11:00:15.304Z,28.67
2018-11-28T11:02:48.130Z,35.43
2018-11-28T11:05:20.756Z,30.73
2018-11-28T11:07:53.526Z,31.43
2018-11-28T11:10:26.327Z,33.97
2018-11-28T11:12:59.221Z,28.33
2018-11-28T11:15:26.753Z,28.47
2018-11-28T11:17:53.973Z,28.80
2018-11-28T11:20:21.568Z,32.63
2018-11-28T11:22:48.870Z,27.53
2018-11-28T11:25:16.178Z,27.80
2018-11-28T11:27:43.413Z,27.73
2018-11-28T11:30:10.785Z,31.20
2018-11-28T11:32:38.293Z,27.93
2018-11-28T11:35:06.572Z,29.23
2018-11-28T11:37:33.982Z,25.67
2018-11-28T11:40:01.338Z,24.47
2018-11-28T11:42:29.317Z,24.03
2018-11-28T11:44:56.587Z,24.20
2018-11-28T11:47:23.898Z,22.97
2018-11-28T11:49:51.169Z,23.80
2018-11-28T11:52:18.424Z,22.80
2018-11-28T11:54:45.699Z,25.47
2018-11-28T11:57:12.957Z,25.57
2018-11-28T11:59:40.615Z,22.23
2018-11-28T12:02:07.909Z,20.83
2018-11-28T12:04:35.137Z,21.23
2018-11-28T12:07:02.766Z,20.03
2018-11-28T12:09:30.001Z,24.93
2018-11-28T12:11:57.261Z,22.93
2018-11-28T12:14:24.522Z,22.00
2018-11-28T12:16:52.078Z,21.77
2018-11-28T12:19:19.293Z,25.33
2018-11-28T12:21:46.553Z,25.60
2018-11-28T12:24:13.825Z,25.90
2018-11-28T12:26:41.045Z,24.37
2018-11-28T12:29:08.537Z,24.90
2018-11-28T12:31:35.834Z,18.57
2018-11-28T12:34:03.078Z,24.90
2018-11-28T12:36:30.350Z,19.23
2018-11-28T12:38:57.561Z,25.40
2018-11-28T12:41:25.136Z,19.90
2018-11-28T12:43:52.401Z,24.83
2018-11-28T12:46:19.659Z,24.30
2018-11-28T12:48:46.890Z,25.23
2018-11-28T12:51:14.101Z,22.60
2018-11-28T12:53:41.613Z,24.50
2018-11-28T12:56:08.873Z,23.23
2018-11-28T12:58:36.161Z,26.07
2018-11-28T13:01:03.543Z,23.87
2018-11-28T13:03:31.303Z,24.70
2018-11-28T13:05:58.532Z,21.77
2018-11-28T13:08:25.749Z,28.37
2018-11-28T13:10:52.973Z,26.63
2018-11-28T13:13:20.245Z,23.73
2018-11-28T13:15:47.477Z,26.13
2018-11-28T13:18:14.705Z,25.30
2018-11-28T13:20:42.314Z,25.13
2018-11-28T13:23:10.140Z,26.00
2018-11-28T13:25:37.397Z,24.93
2018-11-28T13:28:04.645Z,24.83
2018-11-28T13:30:32.133Z,28.17
2018-11-28T13:32:59.389Z,28.50
2018-11-28T13:35:27.291Z,23.03
2018-11-28T13:37:55.184Z,23.97
2018-11-28T13:40:22.445Z,28.17
2018-11-28T13:42:49.670Z,23.80
2018-11-28T13:45:17.701Z,26.70
2018-11-28T13:47:45.721Z,21.03
2018-11-28T13:50:13.028Z,21.60
2018-11-28T13:52:40.289Z,27.30
2018-11-28T13:55:38.548Z,26.37
2018-11-28T13:57:48.354Z,22.63
2018-11-28T14:00:15.597Z,24.57
2018-11-28T14:02:42.845Z,22.37
2018-11-28T14:05:10.964Z,24.83
2018-11-28T14:07:38.797Z,23.13
2018-11-28T14:10:08.030Z,23.33
2018-11-28T14:12:35.297Z,15.80
2018-11-28T14:15:02.638Z,23.07
2018-11-28T14:17:31.068Z,24.63
2018-11-28T14:19:58.363Z,20.77
2018-11-28T14:22:25.645Z,20.93
2018-11-28T14:24:52.917Z,24.33
2018-11-28T14:27:20.851Z,22.50
2018-11-28T14:29:48.154Z,21.37
2018-11-28T14:32:15.446Z,20.80
2018-11-28T14:34:42.793Z,23.50
2018-11-28T14:37:10.457Z,21.83
2018-11-28T14:39:37.774Z,18.70
2018-11-28T14:42:05.589Z,18.87
2018-11-28T14:44:32.962Z,19.83
2018-11-28T14:47:00.849Z,20.90
2018-11-28T14:49:28.106Z,23.07
2018-11-28T14:51:55.460Z,19.13
2018-11-28T14:54:22.777Z,20.17
2018-11-28T14:56:50.065Z,16.60
2018-11-28T14:59:17.361Z,23.80
2018-11-28T15:01:44.754Z,22.80
2018-11-28T15:04:12.309Z,19.23
2018-11-28T15:06:43.119Z,20.70
2018-11-28T15:09:15.693Z,19.77
2018-11-28T15:11:43.767Z,21.73
2018-11-28T15:14:11.044Z,18.23
2018-11-28T15:16:38.295Z,23.90
2018-11-28T15:19:06.340Z,25.63
2018-11-28T15:21:32.933Z,20.90
2018-11-28T15:24:00.185Z,22.23
2018-11-28T15:26:27.438Z,26.03
2018-11-28T15:28:54.970Z,20.73
2018-11-28T15:31:22.205Z,23.73
2018-11-28T15:33:49.454Z,23.47
2018-11-28T15:36:16.702Z,23.97
2018-11-28T15:38:44.290Z,20.27
2018-11-28T15:41:11.512Z,21.57
2018-11-28T15:43:38.733Z,27.27
2018-11-28T15:46:05.987Z,26.17
2018-11-28T15:48:33.688Z,25.32
2018-11-28T15:51:00.922Z,25.63
2018-11-28T15:53:28.163Z,26.13
2018-11-28T15:55:55.479Z,27.17
2018-11-28T15:58:22.989Z,24.63
2018-11-28T16:00:50.261Z,31.43
2018-11-28T16:03:17.521Z,23.10
2018-11-28T16:05:44.753Z,41.13
2018-11-28T16:08:21.654Z,27.57
2018-11-28T16:10:49.142Z,24.23
2018-11-28T16:13:17.040Z,37.70
2018-11-28T16:15:50.791Z,26.27
2018-11-28T16:18:18.081Z,31.37
2018-11-28T16:20:45.288Z,29.50
2018-11-28T16:23:12.561Z,37.13
2018-11-28T16:25:39.868Z,33.53
2018-11-28T16:28:07.450Z,29.03
2018-11-28T16:30:34.752Z,29.00
2018-11-28T16:33:02.008Z,39.27
2018-11-28T16:35:29.309Z,37.13
2018-11-28T16:37:56.602Z,31.80
2018-11-28T16:40:23.900Z,35.07
2018-11-28T16:42:51.136Z,42.07
2018-11-28T16:45:18.906Z,40.53
2018-11-28T16:47:46.257Z,36.93
2018-11-28T16:50:14.700Z,38.67
2018-11-28T16:52:42.942Z,39.40
2018-11-28T16:55:11.680Z,33.90
2018-11-28T16:57:39.152Z,29.30
2018-11-28T17:00:08.764Z,33.67
2018-11-28T17:02:36.882Z,45.20
2018-11-28T17:05:05.337Z,29.07
2018-11-28T17:07:32.640Z,31.37
2018-11-28T17:09:59.921Z,35.73
2018-11-28T17:12:27.233Z,44.90
2018-11-28T17:14:54.821Z,44.77
2018-11-28T17:17:22.118Z,44.23
2018-11-28T17:19:49.413Z,44.97
2018-11-28T17:22:16.758Z,34.53
2018-11-28T17:24:44.049Z,51.23
2018-11-28T17:27:12.112Z,41.63
2018-11-28T17:29:38.951Z,37.93
2018-11-28T17:32:06.257Z,36.97
2018-11-28T17:34:33.585Z,31.43
2018-11-28T17:37:00.871Z,37.63
2018-11-28T17:39:28.162Z,39.93
2018-11-28T17:41:55.837Z,43.33
2018-11-28T17:44:23.394Z,39.87
2018-11-28T17:46:50.717Z,42.63
2018-11-28T17:49:18.027Z,48.90
2018-11-28T17:51:45.389Z,43.40
2018-11-28T17:54:12.711Z,47.10
2018-11-28T17:56:40.073Z,39.20
2018-11-28T17:59:07.334Z,25.57
2018-11-28T18:01:34.891Z,34.57
2018-11-28T18:04:02.229Z,41.80
2018-11-28T18:06:29.503Z,34.60
2018-11-28T18:08:57.046Z,34.30
2018-11-28T18:11:24.386Z,41.30
2018-11-28T18:13:51.748Z,40.17
2018-11-28T18:16:19.068Z,35.53
2018-11-28T18:18:46.367Z,39.80
2018-11-28T18:21:13.710Z,43.13
2018-11-28T18:23:41.018Z,40.67
2018-11-28T18:26:09.296Z,42.00
2018-11-28T18:28:36.665Z,38.07
2018-11-28T18:31:03.966Z,28.67
2018-11-28T18:33:31.294Z,26.80
2018-11-28T18:35:58.592Z,32.40
2018-11-28T18:38:25.906Z,35.27
2018-11-28T18:40:53.577Z,25.63
2018-11-28T18:43:20.849Z,25.63
2018-11-28T18:45:48.818Z,31.27
2018-11-28T18:48:16.130Z,28.30
2018-11-28T18:50:43.817Z,27.70
2018-11-28T18:53:11.182Z,35.60
2018-11-28T18:55:38.606Z,32.50
2018-11-28T18:58:06.557Z,36.07
2018-11-28T19:00:33.852Z,26.90
2018-11-28T19:03:01.147Z,25.10
2018-11-28T19:05:28.786Z,32.03
2018-11-28T19:07:56.029Z,25.20
2018-11-28T19:10:26.342Z,29.30
2018-11-28T19:12:51.126Z,36.23
2018-11-28T19:15:18.973Z,30.57
2018-11-28T19:17:46.530Z,28.43
2018-11-28T19:20:14.378Z,24.60
2018-11-28T19:22:42.085Z,23.13
2018-11-28T19:25:10.062Z,28.77
2018-11-28T19:27:37.293Z,29.07
2018-11-28T19:30:06.515Z,29.83
2018-11-28T19:32:33.775Z,34.10
2018-11-28T19:35:01.018Z,24.17
2018-11-28T19:37:28.305Z,24.17
2018-11-28T19:39:55.550Z,26.03
2018-11-28T19:42:22.821Z,30.57
2018-11-28T19:44:50.087Z,29.90
2018-11-28T19:47:17.364Z,31.80
2018-11-28T19:49:44.909Z,35.33
2018-11-28T19:52:12.228Z,27.77
2018-11-28T19:54:39.507Z,32.97
2018-11-28T19:57:06.762Z,23.10
2018-11-28T19:59:34.011Z,28.63
2018-11-28T20:02:01.528Z,27.50
2018-11-28T20:04:28.769Z,28.43
2018-11-28T20:06:56.043Z,22.73
2018-11-28T20:09:23.638Z,27.23
2018-11-28T20:11:50.913Z,25.17
2018-11-28T20:14:18.178Z,18.70
2018-11-28T20:16:45.415Z,26.03
2018-11-28T20:19:17.496Z,34.40
2018-11-28T20:21:39.887Z,29.57
2018-11-28T20:24:07.145Z,29.87
2018-11-28T20:26:34.641Z,27.47
2018-11-28T20:29:01.894Z,28.30
2018-11-28T20:31:29.106Z,22.93
2018-11-28T20:33:56.373Z,28.63
2018-11-28T20:36:23.579Z,30.00
2018-11-28T20:38:50.834Z,17.73
2018-11-28T20:41:18.337Z,21.67
2018-11-28T20:43:45.671Z,27.17
2018-11-28T20:46:12.957Z,24.93
2018-11-28T20:48:40.289Z,27.37
2018-11-28T20:51:07.605Z,23.67
2018-11-28T20:53:34.887Z,27.53
2018-11-28T20:56:02.197Z,19.37
2018-11-28T20:58:29.798Z,28.87
2018-11-28T21:00:57.107Z,28.43
2018-11-28T21:03:24.429Z,19.57
2018-11-28T21:05:51.949Z,19.37
2018-11-28T21:08:19.250Z,22.03
2018-11-28T21:10:46.831Z,26.37
2018-11-28T21:13:14.233Z,21.87
2018-11-28T21:15:42.062Z,20.70
2018-11-28T21:18:09.383Z,19.27
2018-11-28T21:20:37.135Z,13.87
2018-11-28T21:23:06.537Z,19.87
2018-11-28T21:25:33.811Z,27.10
2018-11-28T21:28:01.952Z,23.00
2018-11-28T21:30:29.275Z,17.57
2018-11-28T21:32:56.539Z,23.93
2018-11-28T21:35:26.573Z,26.77
2018-11-28T21:37:53.828Z,21.83
2018-11-28T21:40:21.085Z,22.43
2018-11-28T21:42:48.331Z,24.33
2018-11-28T21:45:16.294Z,25.20
2018-11-28T21:47:43.958Z,24.93
2018-11-28T21:50:12.904Z,20.70
2018-11-28T21:52:40.175Z,19.83
2018-11-28T21:55:08.297Z,15.80
2018-11-28T21:57:35.885Z,19.50
2018-11-28T22:00:03.409Z,16.30
2018-11-28T22:02:30.681Z,18.03
2018-11-28T22:04:58.457Z,21.67
2018-11-28T22:07:25.735Z,20.07
2018-11-28T22:09:52.950Z,17.40
2018-11-28T22:12:20.213Z,18.80
2018-11-28T22:14:47.457Z,18.77
2018-11-28T22:17:14.737Z,21.20
2018-11-28T22:19:42.287Z,18.53
2018-11-28T22:22:09.562Z,20.27
2018-11-28T22:24:36.800Z,20.20
2018-11-28T22:27:04.056Z,20.10
2018-11-28T22:29:31.295Z,19.83
2018-11-28T22:31:58.759Z,13.57
2018-11-28T22:34:25.724Z,19.07
2018-11-28T22:36:52.874Z,20.23
2018-11-28T22:39:20.007Z,19.40
2018-11-28T22:41:47.388Z,15.00
2018-11-28T22:44:14.792Z,17.93
2018-11-28T22:46:41.940Z,19.03
2018-11-28T22:49:09.072Z,16.40
2018-11-28T22:51:36.556Z,17.03
2018-11-28T22:54:03.690Z,18.40
2018-11-28T22:56:30.821Z,7.93
2018-11-28T22:58:57.960Z,14.13
2018-11-28T23:01:29.585Z,15.57
2018-11-28T23:03:56.746Z,14.83
2018-11-28T23:06:23.888Z,18.07
2018-11-28T23:08:51.090Z,16.50
2018-11-28T23:11:18.240Z,18.27
2018-11-28T23:13:45.391Z,16.70
2018-11-28T23:16:12.897Z,16.60
2018-11-28T23:18:40.033Z,17.03
2018-11-28T23:21:07.163Z,18.57
2018-11-28T23:23:34.292Z,18.27
2018-11-28T23:26:01.437Z,16.23
2018-11-28T23:28:28.562Z,12.37
2018-11-28T23:30:55.692Z,15.20
2018-11-28T23:33:22.852Z,16.87
2018-11-28T23:35:50.263Z,12.70
2018-11-28T23:38:17.383Z,16.57
2018-11-28T23:40:44.529Z,15.67
2018-11-28T23:43:11.657Z,14.53
2018-11-28T23:45:38.799Z,14.63
2018-11-28T23:48:05.928Z,13.70
2018-11-28T23:50:33.385Z,13.77
2018-11-28T23:53:00.809Z,15.67
2018-11-28T23:55:28.399Z,15.50
2018-11-28T23:57:55.629Z,14.40
